WEATHER DATA

YESTERDAY
Time Temp. Dewp. Hum. Wind dir Wind speed Wind gust Bar. 1h Prec. 24h Prec.
00:05 15.6 8.8 64 234 0.8 1.4 1020.6 0.0000 0.0000
00:14 15.4 8.6 64 229 0.6 1.4 1020.5 0.0000 0.0000
00:25 15.1 8.8 66 235 1.1 2.2 1020.5 0.0000 0.0000
00:35 15 8.7 66 215 0.8 1.1 1020.5 0.0000 0.0000
00:45 14.9 9.1 68 213 0.3 0.6 1020.5 0.0000 0.0000
00:55 14.8 8.7 67 233 0.6 1.4 1020.5 0.0000 0.0000
01:05 14.6 8.5 67 239 0.6 1.1 1020.5 0.0000 0.0000
01:15 14.5 8.7 68 236 0.6 1.1 1020.5 0.0000 0.0000
01:25 14.3 8.5 68 238 0.8 1.4 1020.5 0.0000 0.0000
01:35 14.1 8.5 69 234 0.8 1.4 1020.5 0.0000 0.0000
01:45 13.9 8.3 69 228 0.6 1.1 1020.5 0.0000 0.0000
01:55 13.7 8.3 70 217 0.6 1.1 1020.4 0.0000 0.0000
02:06 13.4 8.3 71 231 0.6 1.1 1020.4 0.0000 0.0000
02:16 13.2 8.3 72 270 0.3 0.8 1020.3 0.0000 0.0000
02:25 13.1 8.4 73 270 0.3 0.8 1020.3 0.0000 0.0000
02:35 12.9 8.2 73 239 0.6 1.1 1020.3 0.0000 0.0000
02:46 12.8 8.1 73 221 0.6 0.8 1020.3 0.0000 0.0000
02:56 12.7 8.2 74 222 0.6 1.1 1020.3 0.0000 0.0000
03:05 12.5 8 74 237 1.1 1.9 1020.3 0.0000 0.0000
03:16 12.3 7.8 74 248 0.8 1.7 1020.2 0.0000 0.0000
03:26 12.1 7.8 75 239 0.6 0.8 1020.2 0.0000 0.0000
03:36 12 7.9 76 311 0.3 0.8 1020.2 0.0000 0.0000
03:46 11.8 7.9 77 302 0.3 0.6 1020.2 0.0000 0.0000
03:56 11.6 7.9 78 306 0.3 0.8 1020.2 0.0000 0.0000
04:06 11.3 7.4 77 225 0.6 0.8 1020.1 0.0000 0.0000
04:16 11 7.3 78 217 1.1 1.4 1020 0.0000 0.0000
04:27 10.9 7.2 78 229 1.1 1.7 1019.9 0.0000 0.0000
04:36 11 7.5 79 235 1.4 1.9 1019.7 0.0000 0.0000
04:46 10.9 7.4 79 242 0.8 1.4 1019.7 0.0000 0.0000
04:56 10.5 7 79 321 0.3 1.1 1019.6 0.0000 0.0000
05:07 10.2 6.7 79 240 0.3 0.6 1019.5 0.0000 0.0000
05:16 10.1 6.6 79 214 0.3 0.8 1019.5 0.0000 0.0000
05:26 10.1 6.8 80 230 0.3 0.6 1019.5 0.0000 0.0000
05:37 10 6.7 80 225 0.3 0.8 1019.5 0.0000 0.0000
05:47 10 6.7 80 215 0.3 0.8 1019.3 0.0000 0.0000
05:56 10 6.7 80 225 0.3 0.8 1019.3 0.0000 0.0000
06:07 9.9 6.6 80 315 0.3 0.8 1019.4 0.0000 0.0000
06:17 9.8 6.5 80 270 0.3 0.8 1019.5 0.0000 0.0000
06:27 9.5 6.2 80 208 0.3 0.8 1019.5 0.0000 0.0000
06:37 9.3 6 80 206 0.6 0.8 1019.6 0.0000 0.0000
06:47 9.2 6.1 81 219 0.6 0.8 1019.6 0.0000 0.0000
06:57 9.2 6.1 81 287 0.6 1.1 1019.9 0.0000 0.0000
07:07 9.1 6 81 310 0.3 0.8 1019.7 0.0000 0.0000
07:17 9.2 6.1 81 270 0.3 0.8 1019.9 0.0000 0.0000
07:27 9.1 6 81 225 0.3 0.8 1019.9 0.0000 0.0000
07:37 9 5.9 81 217 0.6 0.8 1019.9 0.0000 0.0000
07:47 8.8 5.7 81 225 0.3 0.6 1020 0.0000 0.0000
07:58 8.8 5.9 82 225 0.3 0.6 1020 0.0000 0.0000
08:07 8.7 5.8 82 270 0.3 0.8 1020.1 0.0000 0.0000
08:17 8.6 5.7 82 315 0.6 0.8 1020.1 0.0000 0.0000
08:28 8.6 5.7 82 315 0.3 0.8 1020.2 0.0000 0.0000
08:38 8.5 5.6 82 270 0.3 0.8 1020.5 0.0000 0.0000
08:47 8.4 5.5 82 214 0.6 0.8 1020.5 0.0000 0.0000
08:57 8.2 5.3 82 210 0.8 1.1 1020.7 0.0000 0.0000
09:08 8.1 5.2 82 230 1.1 1.7 1020.7 0.0000 0.0000
09:18 8.4 5.7 83 233 0.6 1.4 1020.7 0.0000 0.0000
09:27 8.8 6.1 83 315 0.6 0.8 1020.8 0.0000 0.0000
09:38 8.8 5.9 82 333 0.6 1.1 1020.8 0.0000 0.0000
09:48 8.8 5.9 82 317 0.6 0.8 1020.9 0.0000 0.0000
09:58 8.9 6.2 83 330 0.6 0.8 1021 0.0000 0.0000
10:07 9.1 6.4 83 320 0.6 1.1 1021.1 0.0000 0.0000
10:18 9.5 6.8 83 323 0.6 1.1 1021.2 0.0000 0.0000
10:28 10.1 7.3 83 327 0.6 1.4 1021.4 0.0000 0.0000
10:38 10.5 7.6 82 323 0.8 1.7 1021.4 0.0000 0.0000
10:48 11.2 8.1 81 191 0.3 0.8 1021.4 0.0000 0.0000
10:58 12.1 8.8 80 315 0.6 1.1 1021.4 0.0000 0.0000
11:08 12.7 9.2 79 302 0.3 0.8 1021.4 0.0000 0.0000
11:18 13.2 9.3 77 325 0.6 1.1 1021.4 0.0000 0.0000
11:29 13.9 9.7 76 206 0.3 0.8 1021.5 0.0000 0.0000
11:38 14.6 10.2 75 215 0.3 0.6 1021.4 0.0000 0.0000
11:48 15.3 10.3 72 315 0.6 1.1 1021.4 0.0000 0.0000
11:59 15.6 10.4 71 317 0.6 1.1 1021.4 0.0000 0.0000
12:09 16.3 11 71 270 0.3 1.1 1021.4 0.0000 0.0000
12:18 17.1 11.4 69 135 0.3 1.1 1021.2 0.0000 0.0000
12:28 17.8 11.6 67 225 0.3 0.8 1021.1 0.0000 0.0000
12:39 18.6 11.9 65 135 0.3 1.1 1021 0.0000 0.0000
12:49 19.1 11.9 63 141 0.3 1.1 1021 0.0000 0.0000
12:58 19.9 12.2 61 270 0.3 1.1 1020.9 0.0000 0.0000
13:09 20.6 12.1 58 250 0.6 1.4 1020.8 0.0000 0.0000
13:19 21.3 11.9 55 214 0.6 1.7 1020.7 0.0000 0.0000
13:29 21.7 12 54 270 0.3 1.1 1020.6 0.0000 0.0000
13:39 22.1 11.5 51 288 0.6 0.8 1020.5 0.0000 0.0000
13:49 22.5 11.6 50 225 0.3 1.1 1020.3 0.0000 0.0000
13:59 23.6 11.6 47 203 0.3 0.8 1020.2 0.0000 0.0000
14:09 24.2 10.8 43 270 0.6 1.1 1020.1 0.0000 0.0000
14:20 24.6 10.8 42 270 0.3 1.1 1019.9 0.0000 0.0000
14:29 24.9 10.8 41 270 0.3 1.1 1019.7 0.0000 0.0000
14:39 25.5 10.5 39 270 0.6 1.1 1019.6 0.0000 0.0000
14:49 26 10.6 38 270 0.3 0.8 1019.4 0.0000 0.0000
15:00 26.5 10.2 36 225 0.3 0.8 1019.2 0.0000 0.0000
15:09 27 10.7 36 270 0.3 1.1 1019.1 0.0000 0.0000
15:19 27.4 10.2 34 135 0.6 1.9 1019 0.0000 0.0000
15:30 27.5 9.3 32 285 0.6 1.1 1018.9 0.0000 0.0000
15:40 27.5 8.9 31 309 0.6 1.4 1018.8 0.0000 0.0000
15:49 27.7 9.5 32 270 0.3 1.7 1018.7 0.0000 0.0000
16:00 28.1 9.4 31 220 0.6 1.4 1018.7 0.0000 0.0000
16:10 28.5 9.7 31 230 0.8 2.5 1018.6 0.0000 0.0000
16:20 28.8 9.5 30 112 0.6 1.4 1018.5 0.0000 0.0000
16:29 28.8 10 31 232 0.6 1.4 1018.5 0.0000 0.0000
16:40 28.8 9.5 30 270 0.3 0.8 1018.5 0.0000 0.0000
16:50 28.5 8.2 28 289 0.6 1.4 1018.4 0.0000 0.0000
17:00 28.2 8 28 270 0.6 1.9 1018.4 0.0000 0.0000
17:10 28.3 8.6 29 130 0.3 1.7 1018.2 0.0000 0.0000
17:20 28.2 8.5 29 237 0.6 1.7 1018.2 0.0000 0.0000
17:30 28.3 7.5 27 230 1.1 2.8 1018.2 0.0000 0.0000
17:40 28.2 8.5 29 248 0.6 1.4 1018.2 0.0000 0.0000
17:51 28.1 7.4 27 330 0.3 1.1 1018.2 0.0000 0.0000
18:00 28 7.8 28 315 0.3 1.1 1018.2 0.0000 0.0000
18:10 27.9 7.7 28 242 0.6 1.7 1018.1 0.0000 0.0000
18:20 27.9 7.7 28 231 0.6 1.7 1018.1 0.0000 0.0000
18:31 27.7 8.6 30 270 0.6 1.7 1018.2 0.0000 0.0000
18:40 27.4 9.7 33 296 1.1 3.9 1018.4 0.0000 0.0000
18:50 27.1 9.9 34 265 1.9 4.4 1018.5 0.0000 0.0000
19:01 26.8 10.1 35 235 0.8 3.9 1018.7 0.0000 0.0000
19:11 26.5 10.2 36 270 1.4 4.4 1018.7 0.0000 0.0000
19:20 26.3 10.1 36 259 0.8 3.1 1018.7 0.0000 0.0000
19:31 26 9.8 36 161 0.6 2.2 1018.8 0.0000 0.0000
19:41 25.7 9.9 37 229 1.1 2.5 1018.8 0.0000 0.0000
19:51 25.4 9.7 37 228 1.1 2.5 1018.8 0.0000 0.0000
20:00 25.3 10 38 219 1.1 2.2 1018.9 0.0000 0.0000
20:11 24.7 9.8 39 237 0.8 2.2 1019 0.0000 0.0000
20:21 24 10 41 315 0.6 1.4 1019.1 0.0000 0.0000
20:31 23.6 10 42 315 0.6 1.1 1019.2 0.0000 0.0000
20:41 23.4 9.8 42 304 0.3 0.8 1019.3 0.0000 0.0000
20:51 23 9.8 43 270 0.3 0.8 1019.3 0.0000 0.0000
21:01 22.6 11 48 317 0.8 1.9 1019.4 0.0000 0.0000
21:11 22.2 10.7 48 225 0.3 0.8 1019.5 0.0000 0.0000
21:21 21.8 10 47 221 0.3 0.8 1019.7 0.0000 0.0000
21:31 21.3 9.9 48 232 0.6 1.4 1019.7 0.0000 0.0000
21:41 20.8 9.4 48 235 0.8 1.7 1020 0.0000 0.0000
21:52 20.4 9.6 50 227 0.6 1.7 1020.1 0.0000 0.0000
22:01 20.2 9.5 50 241 1.4 2.2 1020.3 0.0000 0.0000
22:11 19.9 9.8 52 229 0.3 0.8 1020.4 0.0000 0.0000
22:21 19.8 10 53 235 0.3 1.1 1020.5 0.0000 0.0000
22:32 19.2 9.7 54 235 0.6 1.4 1020.5 0.0000 0.0000
22:41 19 10 56 231 0.6 1.4 1020.6 0.0000 0.0000
22:51 18.6 9.7 56 236 0.8 1.4 1020.6 0.0000 0.0000
23:02 18.2 9.6 57 231 0.6 1.4 1020.6 0.0000 0.0000
23:12 17.8 9.4 58 229 0.6 1.4 1020.6 0.0000 0.0000
23:22 17.5 9.4 59 235 0.6 1.1 1020.6 0.0000 0.0000
23:32 17.1 9.3 60 237 0.6 0.8 1020.7 0.0000 0.0000
23:42 16.9 9.1 60 244 0.6 1.4 1020.7 0.0000 0.0000
23:52 16.7 9.2 61 235 0.6 1.1 1020.8 0.0000 0.0000

DAY STATISTIC

2022-10-04
TEMPERATURE
AVERAGE
17.5
HIGH
28.8
16:20
LOW
8.1
09:08
PRESSURE
AVERAGE
1019.9
HIGH
1021.5
11:29
LOW
1018.1
18:10
DEWPOINT
AVERAGE
8.6
HIGH
12.2
12:58
LOW
5.2
09:08
HUMIDITY
AVERAGE
60
HIGH
83
09:18
LOW
27
17:30
WIND SPEED
AVERAGE
0.6
HIGH
1.9
18:50
WIND GUST
AVERAGE
1.3
HIGH
4.4
18:50
WIND DIRECTION
PREVAILING
SW
52.4%
N
0.0
NE
0.0
E
0.7
SE
3.5
S
2.1
SW
52.4
W
21.0
NW
20.3
PRECIPITATION
RAIN HOUR
0.0
RAIN DAY
0.0
TEMPERATURE (°C)
LOW
8.1
HIGH
28.8
AVERAGE
17.5
PRESSURE (hpa)
LOW
1018.1
HIGH
1021.5
AVERAGE
1019.9
DEVICE